Allegheny County Airport
KAGC : now visible

Airfield :











YOU CAN JOIN US ON...

 
LOGIN :

Register | Disclaimer

   EN    FR    IT 

 









Legend :    VFR   Marginal VFR   IFR   Intensive IFR   Very Intensive IFR
Visi :
Ceiling :
>= 8 km
>= 3000ft
5 to 8 km
1000 to 3000 ft
1500m to 5 km
500 to 1000 ft
800 to 1500m
200 to 500 ft
< 800m
< 200 ft
Symbols :   Thunderstorms  Fog  Heavy snow  Heavy precipitations  Wind > 20 kt






- Airport Elevation : 1252 ft
- IATA code : AGC


KAGC - Allegheny County

CURRENT METAR :
  • 281753Z 23014G21KT BKN035 OVC047 24/17 A2975 RMK AO2 LTG DSNT N AND NE TSB38E53 SLP075 T02440172 10244 20128 58016 $

EXPIRED METARs :
  • 281744Z 25010G20KT TS BKN033 OVC045 24/18 A2976 RMK AO2 LTG DSNT NW-NE TSB38 T02440178 $
  • 281653Z 18004KT SCT034 BKN041 OVC050 21/17 A2978 RMK AO2 LTG DSNT NE SLP086 T02110167 $
  • 281553Z 18007KT BKN043 BKN055 19/16 A2980 RMK AO2 SLP093 T01890156 $

TAF KAGC
Valid from the 28 at 18:00 until the 29 at 18:00 UTC


281758Z 2818/2918 22014G20KT P6SM VCTS BKN035CB
FM290000 17006KT P6SM OVC025
FM290300 17007KT P6SM OVC025
FM291400 20014G22KT P6SM -SHRA BKN045



MET'MAP, your aeronautical weather chart ! - Copyright ORBIFLY December 2007 - Disclaimer

ORBIFLY MET'MAP TEAM :

Programming & Development : Alexandra Zaïnal
Concept & original design : Baudouin d'Aumeries
Assistance for programming : Marc-Olivier Méhu
Technical & hardware support : Manuel Goepfert

Contact : metmap@orbifly.com




SOURCES & CREDITS :

   NOAA       Earth
Advisory